Time;durP1;ratioP1;P1;durP2;ratioP2;P2;SDS_P1;SDS_P2;PMS_P1;PMS_P2;Temp;Humidity;BMP_temperature;BMP_pressure;BME280_temperature;BME280_humidity;BME280_pressure;Samples;Min_cycle;Max_cycle;Signal;HPM_P1;HPM_P2
2021/09/01 00:02:02;;;;;;;;;26.75;26.00;;;;;17.32;65.61;102336.09;4906957;28;45563;-71
2021/09/01 00:04:27;;;;;;;;;28.50;22.50;;;;;17.31;65.46;102331.75;4908339;28;45631;-71
2021/09/01 00:06:53;;;;;;;;;31.25;23.25;;;;;17.30;65.92;102338.06;4890929;28;47258;-71
2021/09/01 00:09:18;;;;;;;;;32.75;29.50;;;;;17.28;65.94;102340.06;4902683;28;57931;-70
2021/09/01 00:11:44;;;;;;;;;35.00;29.00;;;;;17.23;65.99;102337.00;4909466;28;45380;-71
2021/09/01 00:14:10;;;;;;;;;31.00;29.00;;;;;17.22;66.47;102340.69;4908051;28;45490;-70
2021/09/01 00:16:35;;;;;;;;;36.75;32.00;;;;;17.18;66.52;102339.31;4903659;28;46267;-70
2021/09/01 00:19:04;;;;;;;;;36.50;30.25;;;;;17.15;66.52;102339.63;4978406;28;45434;-71
2021/09/01 00:21:30;;;;;;;;;37.00;31.25;;;;;17.13;66.96;102344.28;4893658;28;46065;-71
2021/09/01 00:23:56;;;;;;;;;43.25;37.00;;;;;17.08;67.07;102344.72;4908394;28;46058;-70
2021/09/01 00:26:22;;;;;;;;;37.25;32.25;;;;;17.05;67.11;102344.22;4907611;28;47088;-71
2021/09/01 00:28:48;;;;;;;;;35.50;32.50;;;;;17.02;67.47;102342.69;4908037;28;45493;-71
2021/09/01 00:31:15;;;;;;;;;38.50;30.50;;;;;17.00;66.97;102338.50;4925427;28;45361;-71
2021/09/01 00:33:41;;;;;;;;;30.75;27.50;;;;;16.98;67.35;102338.63;4886609;28;45564;-71
2021/09/01 00:36:06;;;;;;;;;27.50;25.50;;;;;16.96;67.42;102341.47;4910237;28;46421;-69
2021/09/01 00:38:31;;;;;;;;;30.25;27.75;;;;;16.94;67.83;102351.47;4906802;28;48988;-69
2021/09/01 00:40:57;;;;;;;;;34.50;30.00;;;;;16.91;67.45;102343.75;4907715;28;45542;-73
2021/09/01 00:43:23;;;;;;;;;36.50;30.00;;;;;16.91;68.38;102349.09;4907637;28;45489;-70
2021/09/01 00:45:49;;;;;;;;;43.50;32.50;;;;;16.88;67.90;102333.38;4887716;28;47381;-70
2021/09/01 00:48:22;;;;;;;;;43.75;33.50;;;;;16.85;67.86;102338.19;4907647;28;45576;-79
2021/09/01 00:50:52;;;;;;;;;47.75;35.75;;;;;16.82;68.12;102336.66;4909169;28;45681;-73
2021/09/01 00:53:19;;;;;;;;;35.50;32.00;;;;;16.79;68.28;102342.31;4907020;28;45783;-66
2021/09/01 00:55:46;;;;;;;;;43.00;33.25;;;;;16.77;68.28;102341.59;4906583;28;46236;-68
2021/09/01 00:58:16;;;;;;;;;45.25;33.25;;;;;16.75;68.72;102343.56;4902795;28;45494;-66
2021/09/01 01:08:22;;;;;;;;;35.75;30.25;;;;;16.65;68.94;102340.94;5123823;22;45670;-82
2021/09/01 01:10:48;;;;;;;;;32.25;28.25;;;;;16.63;69.88;102344.75;4920483;28;45903;-83
2021/09/01 01:13:16;;;;;;;;;33.00;31.25;;;;;16.62;69.47;102348.44;4922238;28;45606;-76
2021/09/01 01:15:42;;;;;;;;;31.75;27.75;;;;;16.60;69.31;102345.06;4916187;28;46148;-77
2021/09/01 01:18:10;;;;;;;;;34.75;31.25;;;;;16.59;69.60;102343.38;4927385;28;45574;-79
2021/09/01 01:20:38;;;;;;;;;38.75;32.50;;;;;16.55;69.56;102346.34;4922947;28;57298;-79
2021/09/01 01:23:04;;;;;;;;;32.50;30.00;;;;;16.53;69.84;102342.97;4911619;28;45517;-78
2021/09/01 01:25:40;;;;;;;;;32.25;26.50;;;;;16.51;70.01;102336.94;4913179;28;45483;-78
2021/09/01 01:28:06;;;;;;;;;35.00;28.50;;;;;16.49;69.94;102343.44;4909887;28;45794;-78
2021/09/01 01:30:32;;;;;;;;;37.00;30.00;;;;;16.47;70.03;102327.59;4915949;28;46110;-78
2021/09/01 01:32:58;;;;;;;;;30.50;26.25;;;;;16.43;70.18;102331.53;4908471;28;45406;-79
2021/09/01 01:35:29;;;;;;;;;28.75;25.25;;;;;16.42;70.50;102327.19;4904316;28;45674;-78
2021/09/01 01:37:56;;;;;;;;;32.50;30.00;;;;;16.38;70.31;102331.13;4911455;28;45569;-79
2021/09/01 01:40:23;;;;;;;;;32.50;28.00;;;;;16.33;70.81;102331.59;4914223;28;45559;-77
2021/09/01 01:42:51;;;;;;;;;29.75;26.00;;;;;16.33;70.58;102336.09;4912863;28;56384;-76
2021/09/01 01:45:16;;;;;;;;;27.00;25.00;;;;;16.29;70.79;102342.69;4905498;28;46223;-76
2021/09/01 01:47:41;;;;;;;;;30.75;26.00;;;;;16.27;70.72;102336.66;4922701;28;45552;-78
2021/09/01 01:50:08;;;;;;;;;32.75;27.00;;;;;16.22;71.28;102338.94;4923622;28;46077;-78
2021/09/01 01:52:34;;;;;;;;;30.75;24.50;;;;;16.19;71.13;102345.41;4923705;28;45903;-78
2021/09/01 01:54:59;;;;;;;;;22.00;19.50;;;;;16.18;71.27;102341.06;4911542;28;46098;-77
2021/09/01 01:57:25;;;;;;;;;30.50;25.00;;;;;16.16;71.26;102343.03;4914866;28;45378;-77
2021/09/01 01:59:50;;;;;;;;;31.00;27.50;;;;;16.13;71.71;102338.00;4906782;28;45403;-76
2021/09/01 02:02:15;;;;;;;;;32.75;25.50;;;;;16.10;71.33;102336.47;4923744;28;45268;-77
2021/09/01 02:04:41;;;;;;;;;27.00;25.25;;;;;16.08;71.90;102335.78;4909414;28;49576;-77
2021/09/01 02:07:07;;;;;;;;;31.75;27.50;;;;;16.06;71.58;102342.25;4914392;28;56510;-76
2021/09/01 02:09:32;;;;;;;;;32.50;26.50;;;;;16.03;71.69;102342.53;4916011;28;45542;-77
2021/09/01 02:11:58;;;;;;;;;30.25;24.00;;;;;16.03;71.88;102340.72;4907303;28;45628;-76
2021/09/01 02:14:23;;;;;;;;;30.50;24.50;;;;;16.00;72.01;102337.47;4920565;28;46250;-76
2021/09/01 02:16:49;;;;;;;;;29.50;28.50;;;;;16.02;71.89;102344.38;4925629;28;45786;-76
2021/09/01 02:19:14;;;;;;;;;26.25;23.50;;;;;16.00;71.96;102338.34;4911558;28;45510;-76
2021/09/01 02:21:40;;;;;;;;;38.00;26.25;;;;;16.02;71.53;102346.19;4910859;28;45568;-77
2021/09/01 02:24:07;;;;;;;;;31.50;27.75;;;;;16.02;72.03;102347.03;4917824;28;46116;-75
2021/09/01 02:26:32;;;;;;;;;29.00;27.25;;;;;16.00;72.18;102353.47;4905473;28;46157;-76
2021/09/01 02:28:58;;;;;;;;;29.25;25.25;;;;;15.97;71.92;102353.78;4922272;28;45538;-76
2021/09/01 02:31:24;;;;;;;;;32.00;29.00;;;;;15.95;72.26;102355.75;4908600;28;45527;-76
2021/09/01 02:33:50;;;;;;;;;32.50;27.00;;;;;15.92;72.76;102351.53;4909203;28;45665;-76
2021/09/01 02:36:15;;;;;;;;;30.00;27.75;;;;;15.93;72.26;102349.75;4909199;28;45549;-76
2021/09/01 02:38:44;;;;;;;;;29.75;26.75;;;;;15.94;73.93;102356.75;4921262;28;45497;-76
2021/09/01 02:41:10;;;;;;;;;32.00;26.75;;;;;15.91;72.34;102349.88;4908451;28;45440;-76
2021/09/01 02:43:36;;;;;;;;;30.25;25.75;;;;;15.92;72.43;102351.53;4910873;28;46380;-76
2021/09/01 02:46:01;;;;;;;;;34.00;27.50;;;;;15.98;72.24;102353.66;4917271;28;45522;-76
2021/09/01 02:48:27;;;;;;;;;35.75;31.50;;;;;16.01;72.09;102352.50;4912547;28;45545;-76
2021/09/01 02:50:52;;;;;;;;;42.75;34.00;;;;;16.02;72.59;102354.19;4910406;28;45541;-76
2021/09/01 02:53:18;;;;;;;;;40.00;32.50;;;;;16.03;72.31;102350.53;4908484;28;46110;-76
2021/09/01 02:55:47;;;;;;;;;40.50;33.00;;;;;16.03;73.00;102353.22;4914937;28;45537;-77
2021/09/01 02:58:13;;;;;;;;;45.75;35.50;;;;;16.05;72.70;102356.56;4914367;28;45584;-76
2021/09/01 03:00:38;;;;;;;;;37.00;33.25;;;;;16.07;72.35;102358.09;4910536;28;45510;-76
2021/09/01 03:03:04;;;;;;;;;44.25;33.75;;;;;16.09;72.71;102358.78;4907047;28;45550;-77
2021/09/01 03:05:30;;;;;;;;;45.75;36.00;;;;;16.09;72.19;102363.28;4923484;28;45548;-76
2021/09/01 03:07:56;;;;;;;;;41.00;33.75;;;;;16.10;72.08;102363.16;4913032;28;45490;-76
2021/09/01 03:10:21;;;;;;;;;44.50;36.00;;;;;16.12;72.29;102361.19;4912397;28;45696;-76
2021/09/01 03:12:47;;;;;;;;;44.50;37.25;;;;;16.16;71.99;102355.53;4917705;28;46948;-76
2021/09/01 03:15:13;;;;;;;;;50.75;39.25;;;;;16.17;72.02;102359.88;4910356;28;45477;-76
2021/09/01 03:17:39;;;;;;;;;49.50;37.00;;;;;16.20;72.06;102346.28;4925604;28;45534;-76
2021/09/01 03:20:06;;;;;;;;;47.00;36.25;;;;;16.22;71.89;102355.81;4911263;28;45683;-76
2021/09/01 03:22:31;;;;;;;;;46.75;35.75;;;;;16.23;71.93;102349.47;4923357;28;47534;-76
2021/09/01 03:24:57;;;;;;;;;44.75;36.50;;;;;16.26;71.66;102354.50;4913915;28;45507;-76
2021/09/01 03:27:22;;;;;;;;;52.75;41.50;;;;;16.26;71.44;102359.84;4914408;28;45524;-76
2021/09/01 03:29:48;;;;;;;;;50.75;39.00;;;;;16.24;71.61;102345.81;4911013;28;45610;-76
2021/09/01 03:32:13;;;;;;;;;50.00;40.75;;;;;16.24;71.59;102350.31;4924308;28;45499;-76
2021/09/01 03:34:38;;;;;;;;;53.25;41.00;;;;;16.22;72.50;102341.59;4911448;28;47145;-77
2021/09/01 03:37:04;;;;;;;;;47.50;39.00;;;;;16.21;73.32;102351.44;4917731;28;45673;-77
2021/09/01 03:39:29;;;;;;;;;51.75;39.75;;;;;16.18;72.09;102342.91;4939367;28;45843;-77
2021/09/01 03:41:55;;;;;;;;;48.25;38.75;;;;;16.20;72.03;102343.59;4922370;28;47108;-77
2021/09/01 03:44:21;;;;;;;;;49.00;37.50;;;;;16.20;71.91;102348.94;4905717;28;45725;-77
2021/09/01 03:46:46;;;;;;;;;49.50;39.50;;;;;16.19;72.28;102347.25;4914264;28;45536;-76
2021/09/01 03:49:17;;;;;;;;;49.25;37.00;;;;;16.21;72.16;102355.94;4913625;28;46100;-76
2021/09/01 03:51:44;;;;;;;;;48.25;37.25;;;;;16.19;71.85;102358.75;4915347;28;46282;-76
2021/09/01 03:54:10;;;;;;;;;46.00;37.50;;;;;16.22;71.91;102355.81;4919483;28;50537;-77
2021/09/01 03:56:36;;;;;;;;;48.75;37.75;;;;;16.18;72.95;102346.41;4910001;28;45522;-76
2021/09/01 03:59:02;;;;;;;;;48.50;38.25;;;;;16.20;71.67;102354.28;4913953;28;45593;-76
2021/09/01 04:01:28;;;;;;;;;48.75;38.00;;;;;16.22;71.95;102346.94;4911241;28;46596;-77
2021/09/01 04:03:53;;;;;;;;;40.00;34.00;;;;;16.20;72.38;102343.59;4912117;28;45498;-76
2021/09/01 04:06:18;;;;;;;;;44.75;34.25;;;;;16.23;71.81;102354.81;4911512;28;45541;-77
2021/09/01 04:08:44;;;;;;;;;37.50;32.00;;;;;16.19;72.12;102352.56;4907458;28;45586;-77
2021/09/01 04:11:09;;;;;;;;;34.50;30.75;;;;;16.14;72.22;102345.00;4912111;28;46983;-77
2021/09/01 04:13:35;;;;;;;;;37.50;28.50;;;;;16.18;72.14;102345.56;4923708;28;45574;-77
2021/09/01 04:16:00;;;;;;;;;34.50;27.50;;;;;16.18;72.54;102343.75;4918072;28;45494;-77
2021/09/01 04:18:26;;;;;;;;;30.75;26.25;;;;;16.19;73.64;102349.91;4925424;28;45614;-76
2021/09/01 04:20:51;;;;;;;;;28.25;25.75;;;;;16.19;72.27;102344.56;4909967;28;46295;-76
2021/09/01 04:23:16;;;;;;;;;28.50;26.25;;;;;16.16;72.27;102343.03;4921150;28;45430;-78
2021/09/01 04:25:42;;;;;;;;;31.25;26.00;;;;;16.17;72.21;102349.22;4913664;28;45579;-75
2021/09/01 04:28:08;;;;;;;;;29.00;25.50;;;;;16.16;71.95;102345.69;4924672;28;45592;-76
2021/09/01 04:30:33;;;;;;;;;26.25;24.00;;;;;16.20;71.54;102344.44;4918142;28;45517;-76
2021/09/01 04:32:58;;;;;;;;;28.75;23.25;;;;;16.17;71.79;102344.75;4911071;28;45495;-76
2021/09/01 04:35:24;;;;;;;;;29.25;24.50;;;;;16.19;71.61;102349.91;4908324;28;45441;-76
2021/09/01 04:37:49;;;;;;;;;27.75;21.75;;;;;16.13;71.79;102338.84;4913523;28;45818;-76
2021/09/01 04:40:14;;;;;;;;;27.75;23.00;;;;;16.17;71.60;102350.06;4922782;28;47624;-76
2021/09/01 04:42:40;;;;;;;;;27.25;22.75;;;;;16.17;71.58;102360.75;4914853;28;45558;-76
2021/09/01 04:45:06;;;;;;;;;26.50;20.25;;;;;16.21;71.55;102361.28;4914918;28;45647;-75
2021/09/01 04:47:31;;;;;;;;;23.00;17.75;;;;;16.20;71.54;102359.59;4914324;28;45801;-76
2021/09/01 04:49:56;;;;;;;;;26.00;23.25;;;;;16.23;71.42;102365.47;4919959;28;45475;-76
2021/09/01 04:52:22;;;;;;;;;23.00;19.25;;;;;16.24;71.18;102367.13;4916162;28;45480;-73
2021/09/01 04:54:47;;;;;;;;;26.25;22.50;;;;;16.24;71.35;102368.97;4917965;28;45490;-75
2021/09/01 04:57:13;;;;;;;;;28.25;22.50;;;;;16.25;71.16;102373.34;4917916;28;45634;-73
2021/09/01 04:59:39;;;;;;;;;26.00;19.25;;;;;16.27;70.87;102379.34;4936166;28;46560;-74
2021/09/01 05:02:04;;;;;;;;;24.00;21.25;;;;;16.26;71.11;102380.34;4922318;28;45451;-74
2021/09/01 05:04:33;;;;;;;;;26.50;21.75;;;;;16.23;71.28;102372.66;4933592;28;52304;-74
2021/09/01 05:06:58;;;;;;;;;26.75;23.75;;;;;16.22;71.14;102373.59;4933818;28;45839;-74
2021/09/01 05:09:24;;;;;;;;;28.25;23.50;;;;;16.21;71.20;102369.28;4934542;28;45538;-74
2021/09/01 05:11:49;;;;;;;;;23.00;21.25;;;;;16.21;71.19;102366.59;4931940;28;45492;-74
2021/09/01 05:14:14;;;;;;;;;23.50;21.75;;;;;16.24;71.75;102371.66;4925870;28;45540;-73
2021/09/01 05:16:40;;;;;;;;;30.75;23.25;;;;;16.25;71.65;102376.00;4942182;28;45558;-74
2021/09/01 05:19:06;;;;;;;;;25.75;21.25;;;;;16.21;71.29;102369.28;4925016;28;46415;-76
2021/09/01 05:21:34;;;;;;;;;25.50;22.00;;;;;16.23;71.22;102361.97;4935890;28;45533;-77
2021/09/01 05:24:01;;;;;;;;;24.75;20.00;;;;;16.20;71.08;102364.94;4936412;28;45521;-77
2021/09/01 05:26:31;;;;;;;;;28.25;23.00;;;;;16.23;70.75;102369.97;4923993;28;45840;-76
2021/09/01 05:29:02;;;;;;;;;29.25;20.50;;;;;16.23;70.91;102369.97;4920398;28;46000;-76
2021/09/01 05:31:31;;;;;;;;;24.00;20.50;;;;;16.27;71.30;102366.00;4924071;28;45453;-77
2021/09/01 05:34:00;;;;;;;;;27.00;24.25;;;;;16.27;71.09;102366.88;4938416;28;45655;-77
2021/09/01 05:36:27;;;;;;;;;25.25;20.50;;;;;16.26;71.13;102367.84;4935569;28;45372;-76
2021/09/01 05:38:55;;;;;;;;;30.00;22.25;;;;;16.30;70.82;102374.56;4938152;28;46481;-77
2021/09/01 05:41:21;;;;;;;;;28.50;23.25;;;;;16.33;70.98;102382.28;4914430;28;45815;-77
2021/09/01 05:43:51;;;;;;;;;28.50;26.00;;;;;16.36;71.02;102386.47;4923036;28;45433;-76
2021/09/01 05:46:18;;;;;;;;;25.00;23.50;;;;;16.36;70.68;102383.81;4929211;28;45772;-79
2021/09/01 05:48:45;;;;;;;;;30.25;23.50;;;;;16.38;71.45;102389.84;4931059;28;57670;-77
2021/09/01 05:51:13;;;;;;;;;28.25;23.25;;;;;16.38;71.08;102395.19;4938147;28;45837;-77
2021/09/01 05:53:38;;;;;;;;;23.00;20.00;;;;;16.38;70.90;102392.50;4914944;28;45617;-77
2021/09/01 05:56:10;;;;;;;;;25.75;23.00;;;;;16.42;70.79;102401.03;4916491;28;45367;-77
2021/09/01 05:58:38;;;;;;;;;35.25;27.00;;;;;16.39;70.57;102393.34;4926372;28;46378;-77
2021/09/01 06:01:06;;;;;;;;;32.00;25.50;;;;;16.38;70.83;102387.16;4909394;28;45624;-77
2021/09/01 06:03:32;;;;;;;;;31.25;29.00;;;;;16.41;70.54;102394.88;4927299;28;45371;-78
2021/09/01 06:06:01;;;;;;;;;31.00;28.50;;;;;16.43;70.39;102397.41;4916061;28;45439;-76
2021/09/01 06:08:32;;;;;;;;;39.25;29.25;;;;;16.45;70.45;102406.94;4924373;28;46200;-79
2021/09/01 06:11:00;;;;;;;;;39.00;28.50;;;;;16.48;70.39;102398.63;4920253;28;45697;-80
2021/09/01 06:13:26;;;;;;;;;34.25;25.75;;;;;16.51;70.92;102401.00;4919944;28;45542;-78
2021/09/01 06:15:51;;;;;;;;;36.25;30.50;;;;;16.51;70.51;102400.16;4928461;28;45689;-78
2021/09/01 06:18:17;;;;;;;;;28.25;25.00;;;;;16.51;70.54;102394.84;4926566;28;45715;-79
2021/09/01 06:20:44;;;;;;;;;32.50;27.75;;;;;16.52;70.34;102397.38;4923691;28;45652;-83
2021/09/01 06:23:09;;;;;;;;;29.50;25.00;;;;;16.57;70.13;102399.59;4918220;28;45577;-80
2021/09/01 06:25:36;;;;;;;;;28.25;24.00;;;;;16.60;69.90;102390.44;4917416;28;45985;-84
2021/09/01 06:28:03;;;;;;;;;28.50;24.50;;;;;16.63;69.98;102382.13;4928788;28;46610;-82
2021/09/01 06:30:29;;;;;;;;;25.50;23.50;;;;;16.67;69.99;102387.03;4932954;28;45743;-82
2021/09/01 06:32:54;;;;;;;;;30.75;27.75;;;;;16.73;69.66;102388.25;4921302;28;45737;-81
2021/09/01 06:35:21;;;;;;;;;25.00;20.75;;;;;16.75;69.61;102381.78;4913769;28;46063;-81
2021/09/01 06:37:47;;;;;;;;;26.75;21.75;;;;;16.84;69.29;102382.75;4917639;28;45886;-81
2021/09/01 06:40:14;;;;;;;;;28.25;23.75;;;;;16.87;68.81;102382.44;4919072;28;45600;-80
2021/09/01 06:42:40;;;;;;;;;27.50;22.50;;;;;16.91;69.11;102380.28;4922609;28;46251;-81
2021/09/01 06:45:06;;;;;;;;;23.00;19.50;;;;;16.99;68.96;102377.72;4925629;28;45816;-81
2021/09/01 06:47:43;;;;;;;;;25.50;21.00;;;;;17.07;68.66;102375.13;4923570;28;46098;-81
2021/09/01 06:50:10;;;;;;;;;23.25;20.75;;;;;17.13;68.87;102368.31;4916916;28;45742;-81
2021/09/01 06:52:36;;;;;;;;;28.75;21.00;;;;;17.19;68.38;102381.09;4922729;28;45975;-82
2021/09/01 06:55:01;;;;;;;;;28.00;22.75;;;;;17.26;68.15;102379.47;4919439;28;45587;-81
2021/09/01 06:57:27;;;;;;;;;28.50;23.50;;;;;17.31;68.06;102382.53;4924325;28;46078;-88
2021/09/01 06:59:52;;;;;;;;;31.50;26.75;;;;;17.35;67.82;102381.22;4920590;28;47827;-85
2021/09/01 07:02:17;;;;;;;;;36.50;29.50;;;;;17.46;67.54;102392.66;4926194;28;45504;-82
2021/09/01 07:04:43;;;;;;;;;28.50;25.25;;;;;17.53;67.37;102386.56;4918668;28;50588;-80
2021/09/01 07:07:08;;;;;;;;;34.50;31.00;;;;;17.57;67.21;102381.72;4914928;28;46590;-80
2021/09/01 07:09:34;;;;;;;;;43.75;33.25;;;;;17.65;67.08;102389.78;4918243;28;45557;-85
2021/09/01 07:11:59;;;;;;;;;39.00;31.00;;;;;17.67;66.98;102379.78;4914148;28;52326;-84
2021/09/01 07:14:25;;;;;;;;;44.75;34.25;;;;;17.71;67.18;102383.84;4914334;28;45693;-80
2021/09/01 07:16:51;;;;;;;;;39.00;30.75;;;;;17.84;66.73;102381.59;4923787;28;45377;-85
2021/09/01 07:19:17;;;;;;;;;43.00;33.00;;;;;18.02;66.17;102370.00;4914153;28;45527;-83
2021/09/01 07:21:42;;;;;;;;;43.25;33.00;;;;;18.29;65.95;102374.31;4916345;28;45725;-83
2021/09/01 07:24:09;;;;;;;;;38.75;33.25;;;;;18.67;65.01;102370.28;4915077;28;45712;-84
2021/09/01 07:26:34;;;;;;;;;44.00;33.00;;;;;18.92;64.31;102375.72;4911076;28;53517;-82
2021/09/01 07:29:00;;;;;;;;;38.75;31.50;;;;;19.24;62.91;102363.38;4920355;28;45529;-81
2021/09/01 07:31:27;;;;;;;;;43.50;32.00;;;;;19.36;62.63;102359.31;4920599;28;46014;-82
2021/09/01 07:33:53;;;;;;;;;39.50;32.75;;;;;19.66;62.50;102368.53;4918170;28;45880;-82
2021/09/01 07:36:19;;;;;;;;;39.50;30.50;;;;;19.93;61.59;102361.97;4917301;28;45943;-81
2021/09/01 07:38:44;;;;;;;;;29.50;27.25;;;;;20.11;60.35;102355.53;4913693;28;45545;-78
2021/09/01 07:41:10;;;;;;;;;33.00;31.25;;;;;20.21;60.92;102369.59;4916604;28;45655;-79
2021/09/01 07:43:35;;;;;;;;;37.50;29.25;;;;;20.32;59.66;102376.41;4917389;28;45798;-78
2021/09/01 07:46:00;;;;;;;;;33.00;28.50;;;;;20.46;59.66;102380.22;4919578;28;49115;-81
2021/09/01 07:48:26;;;;;;;;;27.00;23.00;;;;;20.86;59.04;102367.63;4918199;28;47975;-80
2021/09/01 07:50:54;;;;;;;;;24.25;20.50;;;;;21.33;58.08;102382.72;4915340;28;45593;-79
2021/09/01 07:53:20;;;;;;;;;27.25;22.00;;;;;22.19;56.91;102365.22;4918964;28;48979;-79
2021/09/01 07:55:45;;;;;;;;;30.50;23.50;;;;;22.85;54.29;102364.34;4917650;28;45660;-79
2021/09/01 07:58:11;;;;;;;;;22.50;19.00;;;;;23.59;53.57;102372.94;4920876;28;45518;-75
2021/09/01 08:00:37;;;;;;;;;16.25;16.00;;;;;24.07;51.83;102366.81;4919621;28;45585;-76
2021/09/01 08:03:03;;;;;;;;;19.75;19.50;;;;;24.92;51.54;102364.63;4917896;28;45867;-75
2021/09/01 08:05:28;;;;;;;;;20.75;17.00;;;;;26.12;49.31;102359.97;4916043;28;46308;-77
2021/09/01 08:07:54;;;;;;;;;22.25;19.25;;;;;28.32;45.49;102366.41;4921222;28;45494;-78
2021/09/01 08:10:19;;;;;;;;;21.75;16.00;;;;;29.27;43.12;102357.47;4916903;28;45929;-78
2021/09/01 08:12:45;;;;;;;;;17.00;14.75;;;;;29.68;41.54;102358.47;4925089;28;46149;-77
2021/09/01 08:15:10;;;;;;;;;13.50;10.75;;;;;30.77;40.79;102365.00;4918821;28;57591;-77
2021/09/01 08:17:37;;;;;;;;;19.75;15.25;;;;;30.91;38.17;102366.38;4923896;28;45514;-78
2021/09/01 08:20:03;;;;;;;;;26.75;19.25;;;;;29.78;40.08;102363.31;4918732;28;45426;-77
2021/09/01 08:22:29;;;;;;;;;16.25;15.50;;;;;29.11;40.75;102377.25;4916983;28;45767;-77
2021/09/01 08:24:54;;;;;;;;;13.75;9.00;;;;;29.64;39.33;102362.69;4921063;28;46304;-77
2021/09/01 08:27:20;;;;;;;;;16.75;15.75;;;;;29.98;39.41;102365.63;4922472;28;45911;-78
2021/09/01 08:29:45;;;;;;;;;23.00;18.50;;;;;29.67;38.46;102378.59;4914843;28;45958;-77
2021/09/01 08:32:10;;;;;;;;;19.00;17.75;;;;;29.75;38.95;102366.53;4918314;28;45598;-77
2021/09/01 08:34:36;;;;;;;;;18.50;16.00;;;;;29.42;39.30;102375.25;4922676;28;45731;-75
2021/09/01 08:37:03;;;;;;;;;23.50;17.25;;;;;28.92;39.84;102373.72;4926891;28;45458;-76
2021/09/01 08:39:29;;;;;;;;;21.75;17.75;;;;;28.22;39.47;102369.66;4918684;28;45452;-78
2021/09/01 08:41:55;;;;;;;;;23.25;16.00;;;;;27.58;40.90;102385.38;4928419;28;45638;-77
2021/09/01 08:44:20;;;;;;;;;17.25;15.25;;;;;26.94;40.93;102384.59;4914631;28;46433;-78
2021/09/01 08:46:50;;;;;;;;;23.25;19.00;;;;;26.34;41.52;102374.06;4920594;28;45745;-77
2021/09/01 08:49:18;;;;;;;;;17.75;15.75;;;;;25.86;43.45;102379.84;4922727;28;45715;-76
2021/09/01 08:51:43;;;;;;;;;18.00;14.75;;;;;25.80;43.44;102385.25;4917690;28;45427;-76
2021/09/01 08:54:10;;;;;;;;;15.25;13.50;;;;;26.10;44.06;102382.91;4923650;28;46477;-76
2021/09/01 08:56:35;;;;;;;;;21.25;16.25;;;;;26.37;42.63;102387.19;4921548;28;52339;-77
2021/09/01 08:59:01;;;;;;;;;15.50;15.50;;;;;26.17;42.67;102391.84;4917832;28;45701;-76
2021/09/01 09:01:40;;;;;;;;;20.25;18.00;;;;;27.07;43.05;102399.97;4928279;28;45373;-75
2021/09/01 09:04:15;;;;;;;;;19.00;18.00;;;;;28.83;40.17;102383.28;4927753;28;45802;-76
2021/09/01 09:06:54;;;;;;;;;14.25;13.50;;;;;28.94;37.97;102385.22;4918918;28;45519;-76
2021/09/01 09:09:25;;;;;;;;;16.75;16.25;;;;;28.81;38.72;102386.25;4923339;28;45586;-77
2021/09/01 09:11:52;;;;;;;;;16.50;15.00;;;;;30.60;35.29;102373.97;4920787;28;52164;-76
2021/09/01 09:14:31;;;;;;;;;18.50;17.25;;;;;31.99;35.05;102365.25;4916720;28;46132;-77
2021/09/01 09:17:16;;;;;;;;;18.75;14.50;;;;;32.70;35.50;102360.59;4919123;28;45436;-77
2021/09/01 09:19:50;;;;;;;;;19.00;15.50;;;;;35.09;33.18;102366.66;4935801;28;45504;-77
2021/09/01 09:22:36;;;;;;;;;20.50;16.00;;;;;35.25;31.91;102370.22;4924129;28;45573;-77
2021/09/01 09:25:14;;;;;;;;;16.00;14.00;;;;;33.72;28.45;102367.94;4927601;28;45520;-76
2021/09/01 09:27:42;;;;;;;;;14.75;14.75;;;;;32.50;32.17;102382.28;4918366;28;45649;-76
2021/09/01 09:30:20;;;;;;;;;15.00;13.00;;;;;33.11;32.26;102382.03;4915939;28;45564;-77
2021/09/01 09:33:10;;;;;;;;;17.75;16.50;;;;;34.00;31.79;102367.53;4914624;28;45494;-76
2021/09/01 09:35:48;;;;;;;;;17.50;14.50;;;;;35.59;29.44;102364.09;4914208;28;45609;-77
2021/09/01 09:38:15;;;;;;;;;16.25;14.50;;;;;36.07;29.12;102370.78;4916137;28;45482;-75
2021/09/01 09:40:41;;;;;;;;;10.25;10.25;;;;;37.56;29.20;102359.44;4918739;28;45525;-76
2021/09/01 09:43:18;;;;;;;;;14.50;14.00;;;;;39.15;27.90;102357.13;4915792;28;45638;-76
2021/09/01 09:45:46;;;;;;;;;16.00;12.25;;;;;40.30;25.45;102367.22;4918698;28;47317;-77
2021/09/01 09:48:13;;;;;;;;;16.00;13.25;;;;;40.65;25.42;102352.81;4916963;28;45577;-75
2021/09/01 09:50:47;;;;;;;;;12.25;12.25;;;;;40.67;24.58;102358.88;4914300;28;45612;-76
2021/09/01 09:53:12;;;;;;;;;15.00;13.00;;;;;40.20;25.03;102361.88;4918425;28;45540;-76
2021/09/01 09:55:38;;;;;;;;;15.75;15.00;;;;;39.54;24.49;102353.91;4917724;28;46212;-76
2021/09/01 09:58:05;;;;;;;;;14.00;14.00;;;;;38.58;24.45;102375.75;4920942;28;45538;-76
2021/09/01 10:00:30;;;;;;;;;14.25;12.75;;;;;37.43;26.42;102365.63;4917014;28;45741;-77
2021/09/01 10:02:57;;;;;;;;;17.75;15.75;;;;;36.39;26.21;102366.78;4914377;28;45488;-76
2021/09/01 10:05:24;;;;;;;;;18.00;15.25;;;;;35.69;27.05;102369.59;4916508;28;46240;-76
2021/09/01 10:07:50;;;;;;;;;13.75;12.25;;;;;35.40;25.67;102370.19;4920968;28;45437;-76
2021/09/01 10:10:17;;;;;;;;;16.50;13.75;;;;;35.22;28.45;102363.34;4918088;28;45503;-79
2021/09/01 10:12:45;;;;;;;;;15.50;14.00;;;;;34.53;28.25;102358.38;4913981;28;45499;-77
2021/09/01 10:15:15;;;;;;;;;14.25;11.50;;;;;33.62;29.31;102361.31;4906704;28;45660;-77
2021/09/01 10:17:48;;;;;;;;;14.75;12.50;;;;;33.31;30.36;102349.34;4927029;28;45443;-76
2021/09/01 10:20:21;;;;;;;;;14.50;13.50;;;;;33.44;30.27;102348.03;4908353;28;45384;-77
2021/09/01 10:23:13;;;;;;;;;13.00;13.00;;;;;33.82;30.69;102351.53;4911128;28;45564;-77
2021/09/01 10:25:51;;;;;;;;;15.75;13.00;;;;;34.01;27.96;102366.44;4921819;28;46253;-77
2021/09/01 10:28:19;;;;;;;;;10.50;10.50;;;;;34.14;29.17;102358.81;4910440;28;45352;-76
2021/09/01 10:31:11;;;;;;;;;13.25;11.25;;;;;34.14;27.02;102350.59;4912119;28;45625;-77
2021/09/01 10:33:38;;;;;;;;;13.25;11.25;;;;;34.16;28.82;102342.94;4919627;28;51510;-77
2021/09/01 10:36:22;;;;;;;;;12.00;11.50;;;;;34.25;30.16;102333.09;4919669;28;46168;-79
2021/09/01 10:38:47;;;;;;;;;14.00;12.25;;;;;34.78;29.09;102325.47;4921719;28;45550;-79
2021/09/01 10:41:13;;;;;;;;;16.50;13.75;;;;;34.44;28.43;102328.69;4908269;28;45351;-76
2021/09/01 10:43:38;;;;;;;;;15.25;12.75;;;;;33.87;29.66;102320.59;4919416;28;45985;-77
2021/09/01 10:46:05;;;;;;;;;12.75;11.00;;;;;33.88;29.04;102334.03;4920572;28;45760;-77
2021/09/01 10:48:57;;;;;;;;;14.75;12.75;;;;;34.00;29.57;102328.28;4910851;28;45497;-79
2021/09/01 10:51:29;;;;;;;;;15.75;14.75;;;;;34.07;27.56;102311.59;4919779;28;46274;-78
2021/09/01 10:54:28;;;;;;;;;12.75;12.75;;;;;33.62;29.81;102317.47;4935506;28;45442;-78
2021/09/01 10:56:54;;;;;;;;;13.25;13.25;;;;;33.82;28.84;102315.91;4935792;28;47136;-78
2021/09/01 10:59:30;;;;;;;;;11.75;11.75;;;;;33.89;29.62;102311.00;4924207;28;45575;-77
2021/09/01 11:02:16;;;;;;;;;11.50;11.25;;;;;34.08;28.79;102300.41;4923196;28;45726;-78
2021/09/01 11:04:49;;;;;;;;;13.75;12.50;;;;;33.99;28.69;102311.03;4924514;28;46024;-78
2021/09/01 11:07:22;;;;;;;;;14.75;11.25;;;;;33.99;29.07;102307.47;4920172;28;45610;-78
2021/09/01 11:09:56;;;;;;;;;11.50;11.00;;;;;34.38;29.33;102296.88;4931148;28;45518;-77
2021/09/01 11:12:22;;;;;;;;;15.00;12.75;;;;;34.83;28.24;102306.25;4935253;28;45605;-77
2021/09/01 11:14:49;;;;;;;;;11.00;10.75;;;;;34.90;28.26;102303.22;4928995;28;45665;-77
2021/09/01 11:17:17;;;;;;;;;12.25;11.00;;;;;34.80;27.64;102292.25;4928701;28;47273;-78
2021/09/01 11:19:47;;;;;;;;;14.00;12.00;;;;;34.96;28.09;102290.28;4935511;28;45532;-78